This is the latest recevied weather packets stored in our database for station/object N4QD-13. If no packets are shown the sender has not sent any weather packets the latest 10 day(s).
| Time | Temp. | Humidity | Pressure | Rain* | Wind** | Luminosity | Snow |
|---|---|---|---|---|---|---|---|
| 1777127662 | 20.56° C | 72% | 1010.7 hPa | 0 mm | - | 465 W/m² | - |
| 1777127358 | 20° C | 73% | 1010.7 hPa | 0 mm | - | 413 W/m² | - |
| 1777127055 | 21.67° C | 69% | 1010.8 hPa | 0 mm | - | 370 W/m² | - |
| 1777126750 | 20.56° C | 71% | 1010.7 hPa | 0 mm | - | 401 W/m² | - |
| 1777126447 | 20° C | 75% | 1010.8 hPa | 0 mm | - | 429 W/m² | - |
| 1777126142 | 21.11° C | 71% | 1010.8 hPa | 0 mm | - | 385 W/m² | - |
| 1777125838 | 21.11° C | 71% | 1010.9 hPa | 0 mm | - | 460 W/m² | - |
| 1777125534 | 20.56° C | 73% | 1010.7 hPa | 0 mm | - | 419 W/m² | - |
| 1777125230 | 20° C | 77% | 1010.7 hPa | 0 mm | - | 426 W/m² | - |
| 1777124925 | 19.44° C | 77% | 1010.8 hPa | 0 mm | - | 471 W/m² | - |
| 1777124622 | 19.44° C | 80% | 1010.9 hPa | 0 mm | - | 427 W/m² | - |
| 1777124317 | 19.44° C | 78% | 1011 hPa | 0 mm | - | 417 W/m² | - |
| 1777124015 | 18.33° C | 82% | 1010.8 hPa | 0 mm | - | 393 W/m² | - |
| 1777123711 | 18.89° C | 80% | 1010.9 hPa | 0 mm | - | 423 W/m² | - |
| 1777123407 | 18.89° C | 80% | 1011.1 hPa | 0 mm | - | 328 W/m² | - |
| 1777123103 | 18.33° C | 82% | 1011 hPa | 0 mm | - | 358 W/m² | - |
| 1777122800 | 17.78° C | 84% | 1010.8 hPa | 0 mm | - | 355 W/m² | - |
| 1777122496 | 16.67° C | 84% | 1011 hPa | 0 mm | - | 287 W/m² | - |
| 1777122193 | 16.67° C | 85% | 1011 hPa | 0 mm | - | 186 W/m² | - |
| 1777121888 | 16.67° C | 86% | 1011.1 hPa | 0 mm | - | 185 W/m² | - |
| 1777121585 | 15.56° C | 88% | 1011.1 hPa | 0 mm | - | 317 W/m² | - |
| 1777121281 | 15.56° C | 89% | 1011.2 hPa | 0 mm | - | 383 W/m² | - |
| 1777120978 | 15.56° C | 89% | 1011.1 hPa | 0 mm | - | 330 W/m² | - |
| 1777120674 | 14.44° C | 93% | 1011.1 hPa | 0 mm | - | 285 W/m² | - |
| 1777120370 | 14.44° C | 93% | 1011.1 hPa | 0 mm | - | 143 W/m² | - |
* Rain latest hour (hover to see other rain measurements)
** Current wind speed in m/s (hover to see current wind gust speed)